Time;durP1;ratioP1;P1;durP2;ratioP2;P2;SDS_P1;SDS_P2;PMS_P1;PMS_P2;Temp;Humidity;BMP_temperature;BMP_pressure;BME280_temperature;BME280_humidity;BME280_pressure;Samples;Min_cycle;Max_cycle;Signal;HPM_P1;HPM_P2
2024/01/08 00:00:54;;;;;;;5.93;2.72;;;;;;;-1.76;100.00;102177.41;5139048;27;20295;-75
2024/01/08 00:03:19;;;;;;;4.78;2.28;;;;;;;-1.69;100.00;102176.28;5124562;27;20035;-75
2024/01/08 00:05:45;;;;;;;;;;;;;;;-1.65;100.00;102183.16;5117164;27;20038;-75
2024/01/08 00:08:10;;;;;;;3.78;2.22;;;;;;;-1.65;100.00;102146.50;5126397;27;19911;-74
2024/01/08 00:10:37;;;;;;;;;;;;;;;-1.70;100.00;102106.50;5115781;28;20092;-75
2024/01/08 00:13:02;;;;;;;6.38;2.75;;;;;;;-1.74;100.00;102084.78;5111624;27;19993;-74
2024/01/08 00:15:27;;;;;;;4.97;2.17;;;;;;;-1.67;100.00;102072.34;5128843;27;20031;-74
2024/01/08 00:17:53;;;;;;;7.75;2.53;;;;;;;-1.70;100.00;102038.44;5110571;28;20038;-75
2024/01/08 00:20:18;;;;;;;;;;;;;;;-1.73;100.00;102002.72;5128740;27;20108;-75
2024/01/08 00:22:43;;;;;;;5.27;2.50;;;;;;;-1.70;100.00;102007.84;5132879;27;20410;-74
2024/01/08 00:25:09;;;;;;;;;;;;;;;-1.60;100.00;102026.72;5127092;27;20043;-75
2024/01/08 00:27:34;;;;;;;4.10;2.20;;;;;;;-1.61;100.00;102011.06;5130379;27;19911;-75
2024/01/08 00:29:59;;;;;;;;;;;;;;;-1.58;100.00;101976.91;5118414;27;20043;-74
2024/01/08 00:32:25;;;;;;;2.93;2.00;;;;;;;-1.61;100.00;101950.84;5120737;27;19933;-75
2024/01/08 00:34:51;;;;;;;;;;;;;;;-1.56;100.00;101951.53;5125832;27;20019;-74
2024/01/08 00:37:16;;;;;;;6.30;2.30;;;;;;;-1.56;100.00;101941.91;5108461;27;19915;-75
2024/01/08 00:39:43;;;;;;;;;;;;;;;-1.46;100.00;101937.19;5116520;28;20578;-75
2024/01/08 00:42:08;;;;;;;5.57;2.60;;;;;;;-1.50;100.00;101915.50;5122984;27;19911;-75
2024/01/08 00:44:33;;;;;;;7.95;2.53;;;;;;;-1.45;100.00;101907.47;5125319;27;20394;-75
2024/01/08 00:46:59;;;;;;;5.72;2.65;;;;;;;-1.40;100.00;101910.78;5126937;27;20035;-74
2024/01/08 00:49:24;;;;;;;3.28;1.60;;;;;;;-1.37;100.00;101879.22;5126740;27;20023;-75
2024/01/08 00:51:49;;;;;;;6.25;1.90;;;;;;;-1.51;100.00;101813.38;5108029;28;20030;-74
2024/01/08 00:54:15;;;;;;;5.18;2.67;;;;;;;-1.45;100.00;101831.50;5125023;27;20077;-76
2024/01/08 00:56:40;;;;;;;5.22;1.83;;;;;;;-1.37;100.00;101820.72;5108398;28;20019;-75
2024/01/08 00:59:06;;;;;;;10.60;2.22;;;;;;;-1.36;100.00;101819.78;5135292;27;20845;-75
2024/01/08 01:01:31;;;;;;;8.40;1.98;;;;;;;-1.38;100.00;101825.13;5110729;28;20153;-75
2024/01/08 01:03:56;;;;;;;;;;;;;;;-1.23;100.00;101843.78;5122561;27;20047;-73
2024/01/08 01:06:22;;;;;;;3.57;1.80;;;;;;;-1.25;100.00;101817.63;5126496;27;20521;-74
2024/01/08 01:08:47;;;;;;;;;;;;;;;-1.29;100.00;101793.31;5135494;27;20031;-74
2024/01/08 01:11:14;;;;;;;7.45;1.88;;;;;;;-1.33;100.00;101788.25;5106414;27;19919;-75
2024/01/08 01:13:39;;;;;;;2.92;1.40;;;;;;;-1.34;100.00;101778.66;5112917;27;20066;-75
2024/01/08 01:16:05;;;;;;;4.78;1.40;;;;;;;-1.30;100.00;101802.06;5124913;27;20638;-75
2024/01/08 01:18:30;;;;;;;;;;;;;;;-1.30;100.00;101796.84;5124337;27;20489;-75
2024/01/08 01:20:56;;;;;;;2.80;1.58;;;;;;;-1.24;100.00;101823.69;5116056;27;20694;-74
2024/01/08 01:23:21;;;;;;;5.15;1.80;;;;;;;-1.19;100.00;101820.00;5126832;27;20150;-75
2024/01/08 01:25:46;;;;;;;3.90;1.90;;;;;;;-1.30;100.00;101786.34;5130351;27;20046;-74
2024/01/08 01:28:12;;;;;;;5.38;2.13;;;;;;;-1.28;100.00;101809.88;5138781;27;20050;-73
2024/01/08 01:30:37;;;;;;;4.03;1.70;;;;;;;-1.33;100.00;101825.78;5140866;27;20039;-74
2024/01/08 01:33:03;;;;;;;12.32;2.47;;;;;;;-1.28;100.00;101867.53;5140547;27;20114;-74
2024/01/08 01:35:28;;;;;;;4.90;1.50;;;;;;;-1.28;100.00;101878.84;5128514;27;20440;-75
2024/01/08 01:37:54;;;;;;;17.85;1.85;;;;;;;-1.32;100.00;101913.94;5128969;27;20440;-75
2024/01/08 01:40:20;;;;;;;4.15;1.75;;;;;;;-1.36;100.00;101950.78;5128707;27;20039;-75
2024/01/08 01:42:48;;;;;;;;;;;;;;;-1.41;100.00;101982.41;5137641;27;20015;-74
2024/01/08 01:45:14;;;;;;;7.32;2.60;;;;;;;-1.38;100.00;102023.34;5139693;27;20056;-76
2024/01/08 01:47:39;;;;;;;7.18;2.05;;;;;;;-1.35;100.00;102066.03;5131884;27;20035;-75
2024/01/08 01:50:05;;;;;;;;;;;;;;;-1.42;100.00;102090.72;5149142;27;20172;-74
2024/01/08 01:52:31;;;;;;;;;;;;;;;-1.40;100.00;102094.16;5111354;27;19911;-75
2024/01/08 01:54:56;;;;;;;7.47;2.45;;;;;;;-1.30;100.00;102147.94;5124161;27;19918;-75
2024/01/08 01:57:21;;;;;;;8.05;2.55;;;;;;;-1.38;100.00;102134.25;5128246;27;20106;-75
2024/01/08 01:59:47;;;;;;;6.13;1.70;;;;;;;-1.37;100.00;102156.91;5118936;27;20398;-73
2024/01/08 02:02:14;;;;;;;;;;;;;;;-1.29;100.00;102198.59;5126153;27;20038;-75
2024/01/08 02:04:40;;;;;;;8.45;2.50;;;;;;;-1.40;100.00;102188.47;5125575;27;19933;-74
2024/01/08 02:07:06;;;;;;;5.15;2.35;;;;;;;-1.28;100.00;102230.00;5128790;27;20031;-75
2024/01/08 02:09:31;;;;;;;8.80;2.10;;;;;;;-1.30;100.00;102241.44;5136478;27;20038;-74
2024/01/08 02:11:57;;;;;;;5.00;1.65;;;;;;;-1.32;100.00;102238.84;5127743;27;20118;-73
2024/01/08 02:14:22;;;;;;;;;;;;;;;-1.40;100.00;102225.16;5130703;27;20034;-74
2024/01/08 02:16:48;;;;;;;4.07;1.83;;;;;;;-1.42;100.00;102268.88;5134707;27;19911;-75
2024/01/08 02:19:13;;;;;;;5.88;2.47;;;;;;;-1.43;100.00;102277.63;5118875;27;20167;-75
2024/01/08 02:21:39;;;;;;;6.47;2.58;;;;;;;-1.39;100.00;102308.06;5127325;27;20051;-74
2024/01/08 02:24:06;;;;;;;5.50;1.48;;;;;;;-1.44;100.00;102254.97;5116828;27;20029;-75
2024/01/08 02:26:31;;;;;;;4.47;1.75;;;;;;;-1.46;100.00;102246.28;5130585;27;20034;-75
2024/01/08 02:28:56;;;;;;;4.55;1.98;;;;;;;-1.33;100.00;102258.09;5148116;27;20061;-74
2024/01/08 02:31:22;;;;;;;;;;;;;;;-1.27;100.00;102231.69;5149349;27;20397;-74
2024/01/08 02:33:47;;;;;;;11.52;2.30;;;;;;;-1.40;100.00;102198.94;5130118;27;20646;-75
2024/01/08 02:36:12;;;;;;;11.55;2.97;;;;;;;-1.42;100.00;102200.75;5145183;27;20066;-75
2024/01/08 02:38:38;;;;;;;3.33;1.33;;;;;;;-1.30;100.00;102200.34;5126568;27;20034;-75
2024/01/08 02:41:03;;;;;;;9.88;2.42;;;;;;;-1.49;100.00;102118.03;5144929;27;20462;-74
2024/01/08 02:43:29;;;;;;;;;;;;;;;-1.41;100.00;102123.88;5113295;27;20039;-75
2024/01/08 02:45:54;;;;;;;5.73;3.40;;;;;;;-1.37;100.00;102099.28;5135613;27;19907;-74
2024/01/08 02:48:19;;;;;;;4.85;1.63;;;;;;;-1.43;100.00;102075.91;5133387;27;20277;-75
2024/01/08 02:50:45;;;;;;;4.88;2.42;;;;;;;-1.44;100.00;102074.19;5137323;27;20550;-75
2024/01/08 02:53:10;;;;;;;5.78;2.00;;;;;;;-1.33;100.00;102111.38;5116831;27;20436;-75
2024/01/08 02:55:35;;;;;;;6.60;1.88;;;;;;;-1.40;100.00;102073.19;5123445;27;20045;-75
2024/01/08 02:58:05;;;;;;;3.60;1.50;;;;;;;-1.30;100.00;102111.25;5126719;27;20145;-75
2024/01/08 03:00:30;;;;;;;5.38;2.10;;;;;;;-1.44;100.00;102082.06;5113598;27;20014;-74
2024/01/08 03:02:55;;;;;;;5.90;2.88;;;;;;;-1.33;100.00;102115.78;5135304;27;20034;-74
2024/01/08 03:05:20;;;;;;;5.43;3.35;;;;;;;-1.36;100.00;102116.72;5141353;27;20031;-75
2024/01/08 03:07:46;;;;;;;5.68;2.10;;;;;;;-1.38;100.00;102129.03;5143529;27;20263;-74
2024/01/08 03:10:11;;;;;;;5.93;2.30;;;;;;;-1.42;100.00;102134.41;5140881;27;20520;-75
2024/01/08 03:12:37;;;;;;;5.75;1.65;;;;;;;-1.34;100.00;102192.63;5125784;27;20573;-75
2024/01/08 03:15:03;;;;;;;9.68;2.97;;;;;;;-1.38;100.00;102168.31;5143898;27;20075;-74
2024/01/08 03:17:28;;;;;;;7.68;1.73;;;;;;;-1.37;100.00;102154.31;5142860;27;20117;-75
2024/01/08 03:19:53;;;;;;;;;;;;;;;-1.27;100.00;102174.03;5142938;27;20027;-73
2024/01/08 03:22:19;;;;;;;4.13;1.90;;;;;;;-1.21;100.00;102180.84;5141259;27;20494;-75
2024/01/08 03:24:44;;;;;;;6.20;2.72;;;;;;;-1.25;100.00;102175.78;5143494;27;20031;-75
2024/01/08 03:27:10;;;;;;;6.03;2.20;;;;;;;-1.31;100.00;102161.13;5133548;27;20595;-74
2024/01/08 03:29:35;;;;;;;4.75;2.45;;;;;;;-1.28;100.00;102198.53;5140315;27;20046;-76
2024/01/08 03:32:01;;;;;;;;;;;;;;;-1.24;100.00;102222.91;5121876;27;20053;-74
2024/01/08 03:34:26;;;;;;;9.63;2.63;;;;;;;-1.34;100.00;102224.09;5136742;27;20765;-73
2024/01/08 03:36:51;;;;;;;;;;;;;;;-1.31;100.00;102242.34;5125454;27;20023;-73
2024/01/08 03:39:17;;;;;;;8.47;2.20;;;;;;;-1.35;100.00;102248.59;5122689;27;19915;-73
2024/01/08 03:41:43;;;;;;;5.68;1.70;;;;;;;-1.33;100.00;102263.34;5143820;27;20018;-75
2024/01/08 03:44:09;;;;;;;8.63;2.70;;;;;;;-1.23;100.00;102268.31;5147216;27;20113;-75
2024/01/08 03:46:38;;;;;;;;;;;;;;;-1.09;100.00;102294.91;5147090;27;20030;-75
2024/01/08 03:49:04;;;;;;;6.13;1.75;;;;;;;-1.22;100.00;102254.28;5129150;27;19942;-74
2024/01/08 03:51:30;;;;;;;4.00;2.03;;;;;;;-1.24;100.00;102277.06;5143719;27;20178;-75
2024/01/08 03:53:56;;;;;;;5.00;2.22;;;;;;;-1.24;100.00;102275.31;5140315;27;20058;-75
2024/01/08 03:56:21;;;;;;;;;;;;;;;-1.31;100.00;102248.44;5140446;27;20170;-74
2024/01/08 03:58:46;;;;;;;5.10;2.23;;;;;;;-1.33;100.00;102252.03;5147587;27;19914;-73
2024/01/08 04:01:12;;;;;;;;;;;;;;;-1.25;100.00;102276.19;5143634;27;20499;-74
2024/01/08 04:03:38;;;;;;;6.90;3.07;;;;;;;-1.25;100.00;102263.09;5138223;27;20303;-74
2024/01/08 04:06:03;;;;;;;;;;;;;;;-1.23;100.00;102276.16;5129463;27;20030;-75
2024/01/08 04:08:28;;;;;;;7.32;2.50;;;;;;;-1.23;100.00;102315.47;5146076;27;20301;-74
2024/01/08 04:10:54;;;;;;;6.40;1.67;;;;;;;-1.25;100.00;102319.91;5140664;27;20041;-75
2024/01/08 04:13:19;;;;;;;4.32;2.22;;;;;;;-1.15;100.00;102352.78;5143054;27;20396;-75
2024/01/08 04:15:45;;;;;;;5.15;2.30;;;;;;;-1.14;100.00;102328.28;5146038;27;20034;-74
2024/01/08 04:18:10;;;;;;;5.25;1.98;;;;;;;-1.02;100.00;102346.25;5147385;27;20045;-75
2024/01/08 04:20:35;;;;;;;6.95;2.33;;;;;;;-1.10;100.00;102301.06;5146082;27;20828;-75
2024/01/08 04:23:01;;;;;;;4.70;1.90;;;;;;;-1.16;100.00;102304.75;5145837;27;21102;-74
2024/01/08 04:25:26;;;;;;;6.75;2.35;;;;;;;-1.14;100.00;102341.41;5137217;27;20595;-75
2024/01/08 04:27:51;;;;;;;4.97;2.53;;;;;;;-1.24;100.00;102334.72;5141368;27;20092;-74
2024/01/08 04:30:18;;;;;;;6.10;2.05;;;;;;;-1.14;100.00;102360.59;5147158;27;20030;-74
2024/01/08 04:32:43;;;;;;;8.23;2.03;;;;;;;-1.07;100.00;102353.41;5128825;27;20019;-74
2024/01/08 04:35:09;;;;;;;;;;;;;;;-1.12;100.00;102350.94;5145924;27;20106;-75
2024/01/08 04:37:34;;;;;;;7.53;2.53;;;;;;;-1.02;100.00;102392.59;5146016;27;19970;-75
2024/01/08 04:39:59;;;;;;;10.25;3.20;;;;;;;-1.12;100.00;102378.91;5144503;27;20280;-74
2024/01/08 04:42:25;;;;;;;5.15;2.90;;;;;;;-1.13;100.00;102395.53;5144932;27;20031;-75
2024/01/08 04:44:50;;;;;;;5.70;2.85;;;;;;;-1.10;100.00;102411.16;5145498;27;20099;-75
2024/01/08 04:47:15;;;;;;;8.88;3.05;;;;;;;-1.03;100.00;102433.69;5137254;27;20035;-74
2024/01/08 04:49:41;;;;;;;5.30;2.55;;;;;;;-1.21;100.00;102400.16;5147107;27;20046;-75
2024/01/08 04:52:06;;;;;;;5.50;2.55;;;;;;;-1.09;100.00;102463.53;5139270;27;20035;-75
2024/01/08 04:54:32;;;;;;;6.00;2.55;;;;;;;-1.12;100.00;102454.94;5150627;27;20033;-73
2024/01/08 04:56:58;;;;;;;6.22;3.20;;;;;;;-1.13;100.00;102468.91;5125312;27;20541;-74
2024/01/08 04:59:23;;;;;;;;;;;;;;;-1.12;100.00;102510.81;5151503;27;20026;-74
2024/01/08 05:01:52;;;;;;;10.63;2.83;;;;;;;-1.01;100.00;102543.72;5147207;27;19911;-75
2024/01/08 05:04:17;;;;;;;2.97;1.65;;;;;;;-1.05;100.00;102540.34;5150504;27;20030;-76
2024/01/08 05:06:44;;;;;;;12.48;3.03;;;;;;;-0.98;100.00;102577.75;5151058;27;20056;-75
2024/01/08 05:09:10;;;;;;;5.68;2.40;;;;;;;-0.99;100.00;102571.63;5127110;27;20039;-75
2024/01/08 05:11:35;;;;;;;;;;;;;;;-1.00;100.00;102580.41;5151144;27;20037;-76
2024/01/08 05:14:03;;;;;;;12.40;3.58;;;;;;;-1.03;100.00;102572.63;5148989;27;19915;-76
2024/01/08 05:16:28;;;;;;;9.32;2.85;;;;;;;-0.90;100.00;102596.72;5131849;27;20031;-75
2024/01/08 05:18:54;;;;;;;;;;;;;;;-0.96;100.00;102575.91;5146034;27;20086;-76
2024/01/08 05:21:19;;;;;;;18.83;3.07;;;;;;;-1.07;100.00;102536.91;5145226;27;19918;-76
2024/01/08 05:23:44;;;;;;;8.20;3.17;;;;;;;-1.01;100.00;102562.94;5144543;27;20029;-75
2024/01/08 05:26:10;;;;;;;4.78;2.50;;;;;;;-0.98;100.00;102570.72;5145779;27;20065;-75
2024/01/08 05:28:35;;;;;;;7.60;2.42;;;;;;;-0.97;100.00;102572.44;5132134;27;20048;-75
2024/01/08 05:31:01;;;;;;;11.30;2.40;;;;;;;-0.93;100.00;102567.97;5147544;27;20054;-75
2024/01/08 05:33:26;;;;;;;8.10;2.95;;;;;;;-1.03;100.00;102558.63;5148835;27;20049;-75
2024/01/08 05:35:51;;;;;;;6.10;2.00;;;;;;;-1.02;100.00;102553.38;5131697;27;20031;-74
2024/01/08 05:38:17;;;;;;;9.38;3.08;;;;;;;-0.97;100.00;102561.09;5126570;27;20064;-74
2024/01/08 05:40:42;;;;;;;6.45;2.58;;;;;;;-0.99;100.00;102542.78;5149179;27;20026;-75
2024/01/08 05:43:07;;;;;;;5.82;2.40;;;;;;;-0.80;100.00;102534.38;5148843;27;20023;-76
2024/01/08 05:45:33;;;;;;;9.73;2.63;;;;;;;-0.89;100.00;102504.03;5148455;27;20030;-75
2024/01/08 05:47:58;;;;;;;11.50;2.55;;;;;;;-0.93;100.00;102469.19;5149097;27;20022;-75
2024/01/08 05:50:27;;;;;;;5.75;1.83;;;;;;;-0.82;100.00;102468.00;5149064;27;20705;-75
2024/01/08 05:52:56;;;;;;;8.85;1.75;;;;;;;-0.82;100.00;102431.28;5142469;27;20493;-75
2024/01/08 05:55:22;;;;;;;8.23;2.53;;;;;;;-0.77;100.00;102411.88;5143142;27;20816;-75
2024/01/08 05:57:48;;;;;;;22.55;2.95;;;;;;;-0.80;100.00;102382.25;5150118;27;20019;-76
2024/01/08 06:00:14;;;;;;;;;;;;;;;-0.78;100.00;102376.06;5148989;27;20027;-76
2024/01/08 06:02:39;;;;;;;4.75;2.17;;;;;;;-0.71;100.00;102379.34;5142590;27;19911;-75
2024/01/08 06:05:06;;;;;;;5.05;1.70;;;;;;;-0.76;100.00;102347.16;5131336;27;20686;-74
2024/01/08 06:07:32;;;;;;;4.60;1.98;;;;;;;-0.74;100.00;102321.75;5148568;27;20030;-75
2024/01/08 06:09:57;;;;;;;4.47;1.92;;;;;;;-0.79;100.00;102300.94;5149744;27;20075;-75
2024/01/08 06:12:22;;;;;;;3.17;2.20;;;;;;;-0.76;100.00;102295.56;5131150;27;20477;-76
2024/01/08 06:14:49;;;;;;;6.50;2.72;;;;;;;-0.82;100.00;102264.31;5148243;27;20042;-75
2024/01/08 06:17:14;;;;;;;5.20;2.80;;;;;;;-0.76;100.00;102261.47;5131084;27;20019;-76
2024/01/08 06:19:40;;;;;;;;;;;;;;;-0.80;100.00;102236.25;5148997;27;20047;-76
2024/01/08 06:22:05;;;;;;;;;;;;;;;-0.73;100.00;102236.91;5148801;27;19963;-76
2024/01/08 06:24:31;;;;;;;5.78;1.88;;;;;;;-0.78;100.00;102209.97;5130629;27;19915;-76
2024/01/08 06:26:56;;;;;;;9.27;2.80;;;;;;;-0.82;100.00;102184.78;5131166;27;20130;-76
2024/01/08 06:29:22;;;;;;;6.18;1.80;;;;;;;-0.76;100.00;102184.56;5149089;27;20058;-75
2024/01/08 06:31:47;;;;;;;4.80;1.85;;;;;;;-0.71;100.00;102167.75;5134520;27;20039;-75
2024/01/08 06:34:13;;;;;;;;;;;;;;;-0.80;100.00;102114.78;5141846;27;20122;-76
2024/01/08 06:36:39;;;;;;;5.23;2.00;;;;;;;-0.90;100.00;102049.56;5149603;27;19946;-76
2024/01/08 06:39:05;;;;;;;8.00;2.95;;;;;;;-0.74;100.00;102051.63;5130827;27;20074;-76
2024/01/08 06:41:30;;;;;;;;;;;;;;;-0.66;100.00;102031.19;5148216;27;20114;-76
2024/01/08 06:43:56;;;;;;;4.75;1.70;;;;;;;-0.90;100.00;101923.69;5130339;27;20026;-75
2024/01/08 06:46:21;;;;;;;4.15;1.98;;;;;;;-0.76;100.00;101917.06;5148055;27;20034;-76
2024/01/08 06:48:47;;;;;;;2.92;1.65;;;;;;;-0.83;100.00;101873.66;5149307;27;20106;-75
2024/01/08 06:51:12;;;;;;;;;;;;;;;-0.75;100.00;101853.19;5149377;27;20537;-76
2024/01/08 06:53:37;;;;;;;;;;;;;;;-0.80;100.00;101800.94;5142809;27;19907;-74
2024/01/08 06:56:03;;;;;;;4.77;1.80;;;;;;;-0.75;100.00;101785.00;5122154;27;19947;-75
2024/01/08 06:58:28;;;;;;;;;;;;;;;-0.81;100.00;101704.84;5148232;27;20030;-76
2024/01/08 07:00:54;;;;;;;;;;;;;;;-0.81;100.00;101657.66;5149524;27;19963;-75
2024/01/08 07:03:19;;;;;;;4.67;1.53;;;;;;;-0.77;100.00;101637.38;5130249;27;19907;-74
2024/01/08 07:05:44;;;;;;;3.80;2.00;;;;;;;-0.78;100.00;101604.22;5144090;27;20027;-76
2024/01/08 07:08:10;;;;;;;3.25;1.75;;;;;;;-0.78;100.00;101555.25;5143585;27;20038;-74
2024/01/08 07:10:35;;;;;;;4.05;2.03;;;;;;;-0.92;100.00;101471.97;5148582;27;20061;-76
2024/01/08 07:13:01;;;;;;;4.28;2.10;;;;;;;-0.72;100.00;101534.00;5130009;27;20035;-76
2024/01/08 07:15:39;;;;;;;3.30;1.58;;;;;;;-0.65;100.00;101566.88;5129027;27;20019;-75
2024/01/08 07:18:08;;;;;;;4.32;1.60;;;;;;;-0.64;100.00;101537.09;5130109;27;20035;-76
2024/01/08 07:20:36;;;;;;;3.17;1.73;;;;;;;-0.61;100.00;101524.78;5140850;27;20042;-76
2024/01/08 07:23:02;;;;;;;3.50;1.70;;;;;;;-0.64;100.00;101492.50;5141254;27;20134;-75
2024/01/08 07:25:27;;;;;;;3.78;1.98;;;;;;;-0.64;100.00;101507.41;5147305;27;20113;-76
2024/01/08 07:27:53;;;;;;;5.30;2.38;;;;;;;-0.58;100.00;101567.47;5149055;27;20099;-75
2024/01/08 07:30:18;;;;;;;7.95;1.98;;;;;;;-0.60;100.00;101566.66;5130151;27;20725;-74
2024/01/08 07:32:43;;;;;;;8.38;2.17;;;;;;;-0.63;100.00;101569.44;5140494;27;20378;-75
2024/01/08 07:35:09;;;;;;;4.35;1.88;;;;;;;-0.57;100.00;101579.63;5132195;27;20070;-75
2024/01/08 07:37:34;;;;;;;7.38;1.88;;;;;;;-0.64;100.00;101560.69;5136682;27;20113;-74
2024/01/08 07:39:59;;;;;;;4.30;1.73;;;;;;;-0.53;100.00;101609.22;5109094;27;20123;-75
2024/01/08 07:42:25;;;;;;;5.13;2.33;;;;;;;-0.59;100.00;101594.59;5120285;27;20042;-75
2024/01/08 07:44:50;;;;;;;7.57;2.03;;;;;;;-0.47;100.00;101625.53;5129268;27;20652;-75
2024/01/08 07:47:15;;;;;;;3.40;1.70;;;;;;;-0.52;100.00;101606.50;5146580;27;20400;-76
2024/01/08 07:49:41;;;;;;;4.22;2.13;;;;;;;-0.55;100.00;101603.19;5129286;27;20556;-75
2024/01/08 07:52:06;;;;;;;5.50;2.00;;;;;;;-0.54;100.00;101618.88;5146564;27;20030;-75
2024/01/08 07:54:32;;;;;;;3.75;1.77;;;;;;;-0.53;100.00;101631.03;5146058;27;20046;-74
2024/01/08 07:56:57;;;;;;;4.13;1.73;;;;;;;-0.46;100.00;101653.47;5129315;27;20034;-75
2024/01/08 07:59:22;;;;;;;4.07;2.08;;;;;;;-0.54;100.00;101612.75;5129325;27;20133;-75
2024/01/08 08:01:48;;;;;;;4.93;2.22;;;;;;;-0.54;100.00;101639.84;5146521;27;20029;-76
2024/01/08 08:04:13;;;;;;;4.40;2.70;;;;;;;-0.44;100.00;101638.50;5138746;27;20418;-76
2024/01/08 08:06:38;;;;;;;5.22;1.75;;;;;;;-0.32;100.00;101660.72;5143009;27;20442;-75
2024/01/08 08:09:05;;;;;;;6.47;2.10;;;;;;;-0.32;100.00;101642.34;5146420;27;20634;-76
2024/01/08 08:11:30;;;;;;;;;;;;;;;-0.37;100.00;101623.34;5129423;27;20027;-76
2024/01/08 08:13:56;;;;;;;2.40;1.70;;;;;;;-0.43;100.00;101598.22;5145816;27;19918;-75
2024/01/08 08:16:21;;;;;;;5.68;1.85;;;;;;;-0.48;100.00;101547.72;5145973;27;20847;-74
2024/01/08 08:18:47;;;;;;;5.88;2.15;;;;;;;-0.47;100.00;101545.94;5142791;27;20031;-75
2024/01/08 08:21:12;;;;;;;4.05;1.98;;;;;;;-0.41;100.00;101552.72;5143685;27;20034;-75
2024/01/08 08:23:37;;;;;;;5.43;2.50;;;;;;;-0.38;100.00;101602.41;5128358;27;20114;-75
2024/01/08 08:26:03;;;;;;;5.72;1.98;;;;;;;-0.34;100.00;101627.59;5146804;27;20030;-75
2024/01/08 08:28:29;;;;;;;3.60;1.88;;;;;;;-0.26;100.00;101644.69;5151266;27;20034;-75
2024/01/08 08:30:54;;;;;;;;;;;;;;;-0.28;100.00;101614.16;5152170;27;20485;-76
2024/01/08 08:33:20;;;;;;;6.90;2.38;;;;;;;-0.22;100.00;101627.84;5149832;27;19915;-75
2024/01/08 08:35:45;;;;;;;5.38;2.83;;;;;;;-0.34;100.00;101568.06;5150410;27;20018;-74
2024/01/08 08:38:10;;;;;;;8.48;2.97;;;;;;;-0.29;100.00;101613.31;5150397;27;20211;-76
2024/01/08 08:40:36;;;;;;;6.63;2.72;;;;;;;-0.19;100.00;101629.47;5150144;27;20113;-75
2024/01/08 08:43:01;;;;;;;6.63;2.72;;;;;;;-0.25;100.00;101593.03;5132618;27;20103;-75
2024/01/08 08:45:28;;;;;;;4.13;1.85;;;;;;;-0.19;100.00;101639.97;5151172;27;20099;-76
2024/01/08 08:47:53;;;;;;;6.30;2.75;;;;;;;-0.17;100.00;101632.88;5137445;27;20035;-76
2024/01/08 08:50:19;;;;;;;6.28;1.85;;;;;;;-0.19;100.00;101634.72;5117599;27;20066;-76
2024/01/08 08:52:44;;;;;;;4.30;1.98;;;;;;;-0.09;100.00;101646.53;5137530;27;20413;-74
2024/01/08 08:55:10;;;;;;;7.10;2.15;;;;;;;-0.06;100.00;101620.13;5139696;27;20047;-75
2024/01/08 08:57:36;;;;;;;5.15;1.83;;;;;;;-0.15;100.00;101582.97;5124970;27;20133;-76
2024/01/08 09:00:03;;;;;;;6.55;2.45;;;;;;;-0.09;100.00;101606.31;5129056;27;20019;-75
2024/01/08 09:02:28;;;;;;;5.18;1.90;;;;;;;-0.07;100.00;101602.69;5117247;27;20133;-76
2024/01/08 09:04:54;;;;;;;4.45;2.03;;;;;;;0.02;100.00;101621.53;5129144;27;20484;-76
2024/01/08 09:07:22;;;;;;;8.38;2.03;;;;;;;0.08;100.00;101647.50;5129767;27;20734;-76
2024/01/08 09:09:49;;;;;;;5.90;2.03;;;;;;;0.08;100.00;101647.50;5151031;27;20086;-74
2024/01/08 09:12:15;;;;;;;6.07;1.98;;;;;;;-0.02;100.00;101647.94;5151130;27;20046;-75
2024/01/08 09:14:41;;;;;;;4.78;2.47;;;;;;;-0.01;100.00;101662.75;5149271;27;20469;-76
2024/01/08 09:17:06;;;;;;;3.40;2.00;;;;;;;0.08;100.00;101637.00;5143605;27;20030;-74
2024/01/08 09:19:32;;;;;;;5.38;2.00;;;;;;;0.21;100.00;101698.50;5144945;27;20030;-74
2024/01/08 09:21:57;;;;;;;7.57;2.35;;;;;;;0.23;100.00;101687.94;5136656;27;20385;-76
2024/01/08 09:24:22;;;;;;;5.28;2.05;;;;;;;0.33;100.00;101690.06;5142811;27;20031;-75
2024/01/08 09:26:48;;;;;;;8.27;2.45;;;;;;;0.19;100.00;101603.19;5149554;27;20031;-76
2024/01/08 09:29:13;;;;;;;13.32;2.78;;;;;;;0.25;100.00;101644.06;5144202;27;20502;-76
2024/01/08 09:31:38;;;;;;;4.82;1.90;;;;;;;0.24;100.00;101618.75;5119579;27;20168;-75
2024/01/08 09:34:05;;;;;;;5.05;2.00;;;;;;;0.25;100.00;101613.38;5120312;27;20039;-76
2024/01/08 09:36:30;;;;;;;7.88;2.40;;;;;;;0.27;100.00;101616.78;5119213;27;20525;-75
2024/01/08 09:38:56;;;;;;;7.45;2.50;;;;;;;0.19;100.00;101611.94;5129586;27;20174;-76
2024/01/08 09:41:21;;;;;;;6.53;2.45;;;;;;;0.11;100.00;101572.03;5132132;27;20051;-73
2024/01/08 09:43:47;;;;;;;3.72;1.55;;;;;;;0.14;100.00;101645.44;5136819;27;20031;-75
2024/01/08 09:46:18;;;;;;;8.85;2.80;;;;;;;0.23;100.00;101740.47;5142403;27;20049;-75
2024/01/08 09:48:45;;;;;;;7.88;3.05;;;;;;;-0.05;100.00;101763.59;5132697;27;20142;-76
2024/01/08 09:51:11;;;;;;;6.55;2.35;;;;;;;-0.12;100.00;101958.19;5148943;27;20133;-76
2024/01/08 09:53:36;;;;;;;;;;;;;;;-0.03;100.00;102155.56;5131628;27;20833;-75
2024/01/08 09:56:03;;;;;;;6.85;2.60;;;;;;;-0.06;100.00;102244.97;5127640;27;19922;-74
2024/01/08 09:58:28;;;;;;;6.90;2.53;;;;;;;-0.04;100.00;102405.94;5148626;27;20038;-76
2024/01/08 10:00:54;;;;;;;11.93;2.30;;;;;;;-0.09;100.00;102470.06;5119362;27;20024;-76
2024/01/08 10:03:20;;;;;;;6.65;2.35;;;;;;;-0.03;100.00;102574.88;5132865;27;20041;-76
2024/01/08 10:05:45;;;;;;;;;;;;;;;-0.06;100.00;102616.97;5136952;27;20500;-76
2024/01/08 10:08:11;;;;;;;3.88;2.03;;;;;;;0.05;100.00;102643.78;5126181;27;19915;-75
2024/01/08 10:10:36;;;;;;;3.95;2.53;;;;;;;0.04;100.00;102635.94;5145091;27;20295;-75
2024/01/08 10:13:02;;;;;;;6.60;3.08;;;;;;;0.19;100.00;102688.84;5143030;27;20066;-75
2024/01/08 10:15:28;;;;;;;6.07;2.40;;;;;;;-0.05;100.00;102601.19;5146880;27;20091;-75
2024/01/08 10:18:00;;;;;;;13.75;2.78;;;;;;;0.16;100.00;102669.69;5142826;27;20054;-76
2024/01/08 10:20:25;;;;;;;7.18;2.28;;;;;;;0.38;100.00;102680.38;5131076;27;20030;-75
2024/01/08 10:23:24;;;;;;;5.03;2.55;;;;;;;0.24;100.00;102599.38;5149826;27;20030;-76
2024/01/08 10:25:51;;;;;;;4.35;2.17;;;;;;;0.46;100.00;102651.22;5137476;27;20522;-75
2024/01/08 10:28:18;;;;;;;2.95;1.92;;;;;;;0.56;100.00;102671.03;5142086;27;20070;-75
2024/01/08 10:30:44;;;;;;;6.32;2.50;;;;;;;0.65;100.00;102631.28;5127194;27;20027;-76
2024/01/08 10:33:09;;;;;;;9.73;2.97;;;;;;;0.55;100.00;102587.84;5131456;27;20023;-76
2024/01/08 10:35:40;;;;;;;9.98;5.10;;;;;;;0.49;100.00;102562.63;5147497;27;20091;-76
2024/01/08 10:38:06;;;;;;;6.72;2.40;;;;;;;0.37;100.00;102521.00;5147924;27;20035;-76
2024/01/08 10:40:31;;;;;;;8.02;2.88;;;;;;;0.40;100.00;102500.72;5120558;27;20378;-75
2024/01/08 10:42:57;;;;;;;5.90;2.58;;;;;;;0.32;100.00;102468.59;5147818;27;20042;-76
2024/01/08 10:45:23;;;;;;;5.03;2.47;;;;;;;0.41;100.00;102463.03;5129952;27;20045;-76
2024/01/08 10:48:20;;;;;;;10.48;3.95;;;;;;;0.18;100.00;102386.81;5147962;27;20033;-76
2024/01/08 10:50:46;;;;;;;13.60;5.20;;;;;;;0.22;100.00;102411.19;5121689;27;20570;-76
2024/01/08 10:53:26;;;;;;;6.40;2.97;;;;;;;0.18;100.00;102423.56;5143018;27;20030;-75
2024/01/08 10:55:52;;;;;;;14.70;3.50;;;;;;;0.22;100.00;102448.84;5132861;27;20041;-75
2024/01/08 10:58:26;;;;;;;5.55;2.25;;;;;;;0.26;100.00;102470.56;5147880;27;20035;-76
2024/01/08 11:00:52;;;;;;;7.93;3.00;;;;;;;-0.01;100.00;102379.56;5133936;27;20029;-74
2024/01/08 11:03:17;;;;;;;;;;;;;;;0.19;100.00;102462.09;5130961;27;20038;-76
2024/01/08 11:05:50;;;;;;;6.05;2.38;;;;;;;0.43;100.00;102488.41;5139067;27;19911;-77
2024/01/08 11:08:17;;;;;;;8.60;2.70;;;;;;;0.68;100.00;102494.50;5149128;27;20035;-77
2024/01/08 11:10:42;;;;;;;14.05;3.65;;;;;;;0.66;100.00;102414.81;5148664;27;20022;-76
2024/01/08 11:13:10;;;;;;;5.18;2.78;;;;;;;0.28;100.00;102304.13;5147428;27;20432;-76
2024/01/08 11:15:36;;;;;;;6.10;2.33;;;;;;;0.24;100.00;102355.06;5138566;27;20045;-75
2024/01/08 11:18:04;;;;;;;4.95;2.08;;;;;;;0.25;100.00;102397.94;5143169;27;20039;-75
2024/01/08 11:20:44;;;;;;;9.68;2.72;;;;;;;0.50;100.00;102442.59;5121591;27;20035;-76